Time;durP1;ratioP1;P1;durP2;ratioP2;P2;SDS_P1;SDS_P2;PMS_P1;PMS_P2;Temp;Humidity;BMP_temperature;BMP_pressure;BME280_temperature;BME280_humidity;BME280_pressure;Samples;Min_cycle;Max_cycle;Signal;HPM_P1;HPM_P2
2022/11/29 00:02:39;;;;;;;;;;;;;;;24.88;45.07;93935.16;4813056;29;7033;-61
2022/11/29 00:05:16;;;;;;;;;;;;;;;24.88;45.56;93935.16;4784383;29;7202;-61
2022/11/29 00:08:08;;;;;;;;;;;;;;;24.88;45.73;93932.41;4787340;30;7342;-61
2022/11/29 00:10:38;;;;;;;;;;;;;;;24.87;45.61;93930.91;4787428;30;7141;-61
2022/11/29 00:13:16;;;;;;;;;;;;;;;24.85;45.41;93923.19;4787234;30;7047;-61
2022/11/29 00:15:44;;;;;;;;;;;;;;;24.84;45.60;93927.19;4787753;29;7166;-61
2022/11/29 00:18:20;;;;;;;;;;;;;;;24.85;45.76;93925.19;4829319;29;7626;-61
2022/11/29 00:20:45;;;;;;;;;;;;;;;24.85;45.67;93919.69;4877167;29;7025;-61
2022/11/29 00:23:14;;;;;;;;;;;;;;;24.84;45.05;93929.94;4876458;29;7564;-61
2022/11/29 00:25:39;;;;;;;;;;;;;;;24.85;45.14;93931.44;4862490;29;7391;-61
2022/11/29 00:28:08;;;;;;;;;;;;;;;24.85;45.26;93928.69;4926363;28;7013;-61
2022/11/29 00:30:53;;;;;;;;;;;;;;;24.86;45.61;93923.94;4955984;28;7205;-61
2022/11/29 00:33:47;;;;;;;;;;;;;;;24.86;45.66;93926.69;4955436;28;9183;-61
2022/11/29 00:36:14;;;;;;;;;;;;;;;24.85;45.27;93927.94;4955073;28;8815;-61
2022/11/29 00:39:15;;;;;;;;;;;;;;;24.84;45.50;93924.44;4967139;28;8976;-61
2022/11/29 00:41:43;;;;;;;;;;;;;;;24.84;45.02;93929.22;4910155;29;6997;-61
2022/11/29 00:44:25;;;;;;;;;;;;;;;24.85;45.19;93927.94;4917385;29;7220;-61
2022/11/29 00:47:04;;;;;;;;;;;;;;;24.84;45.56;93918.94;4924995;29;7141;-61
2022/11/29 00:49:35;;;;;;;;;;;;;;;24.86;45.24;93926.69;4916832;29;7114;-61
2022/11/29 00:52:01;;;;;;;;;;;;;;;24.85;45.46;93928.69;4932224;29;7233;-61
2022/11/29 00:54:27;;;;;;;;;;;;;;;24.86;44.80;93927.41;4912604;29;7017;-61
2022/11/29 00:56:53;;;;;;;;;;;;;;;24.86;45.50;93929.44;4926980;29;7152;-61
2022/11/29 00:59:29;;;;;;;;;;;;;;;24.87;44.92;93922.66;4915804;29;7171;-61
2022/11/29 01:02:03;;;;;;;;;;;;;;;24.87;45.29;93919.91;4923122;29;7306;-61
2022/11/29 01:04:32;;;;;;;;;;;;;;;24.86;44.84;93921.19;4912975;29;9175;-61
2022/11/29 01:07:16;;;;;;;;;;;;;;;24.89;45.14;93918.13;4926009;29;7578;-61
2022/11/29 01:09:52;;;;;;;;;;;;;;;24.89;45.32;93926.41;4929170;29;9199;-61
2022/11/29 01:12:20;;;;;;;;;;;;;;;24.89;45.33;93931.16;4935220;28;7101;-61
2022/11/29 01:14:46;;;;;;;;;;;;;;;24.88;44.82;93918.66;4944302;28;7268;-61
2022/11/29 01:17:12;;;;;;;;;;;;;;;24.88;44.96;93924.16;4929433;28;9033;-61
2022/11/29 01:19:40;;;;;;;;;;;;;;;24.84;45.27;93923.72;4990190;28;7550;-61
2022/11/29 01:22:09;;;;;;;;;;;;;;;24.88;45.25;93921.41;4987190;28;8862;-61
2022/11/29 01:24:37;;;;;;;;;;;;;;;24.87;45.21;93914.41;4982984;28;7209;-61
2022/11/29 01:27:08;;;;;;;;;;;;;;;24.87;45.44;93928.91;4994272;28;7262;-61
2022/11/29 01:29:37;;;;;;;;;;;;;;;24.85;44.91;93917.69;4989923;28;7270;-61
2022/11/29 01:32:30;;;;;;;;;;;;;;;24.86;45.34;93927.41;4983944;28;7285;-61
2022/11/29 01:35:07;;;;;;;;;;;;;;;24.87;45.20;93914.41;4925092;29;7034;-61
2022/11/29 01:37:57;;;;;;;;;;;;;;;24.85;45.41;93919.69;4933986;29;8978;-61
2022/11/29 01:40:38;;;;;;;;;;;;;;;24.85;45.00;93920.44;4918230;29;7111;-61
2022/11/29 01:43:17;;;;;;;;;;;;;;;24.87;45.54;93917.16;4934186;29;7684;-62
2022/11/29 01:45:43;;;;;;;;;;;;;;;24.86;45.11;93916.41;4933808;29;7199;-61
2022/11/29 01:48:13;;;;;;;;;;;;;;;24.87;45.00;93917.91;4917551;29;7101;-61
2022/11/29 01:50:43;;;;;;;;;;;;;;;24.87;44.68;93917.91;4918280;29;7240;-61
2022/11/29 01:53:15;;;;;;;;;;;;;;;24.85;45.09;93923.19;4933520;29;7403;-61
2022/11/29 01:56:14;;;;;;;;;;;;;;;24.85;45.16;93917.69;4914569;29;7523;-61
2022/11/29 01:58:46;;;;;;;;;;;;;;;24.84;45.08;93918.94;4854445;29;7337;-61
2022/11/29 02:01:22;;;;;;;;;;;;;;;24.84;44.85;93918.22;4859354;29;7432;-61
2022/11/29 02:04:19;;;;;;;;;;;;;;;24.84;44.94;93918.22;4860465;29;7181;-61
2022/11/29 02:06:46;;;;;;;;;;;;;;;24.83;45.05;93908.47;4806634;29;7395;-61
2022/11/29 02:09:24;;;;;;;;;;;;;;;24.82;45.66;93910.47;4806325;29;7033;-61
2022/11/29 02:12:12;;;;;;;;;;;;;;;24.86;45.47;93918.44;4839942;29;7279;-61
2022/11/29 02:15:01;;;;;;;;;;;;;;;24.85;45.76;93914.19;4842846;29;10300;-61
2022/11/29 02:18:19;;;;;;;;;;;;;;;24.85;44.70;93916.94;4857695;29;7350;-61
2022/11/29 02:24:17;;;;;;;;;;;;;;;24.83;44.92;93908.47;4853961;29;9464;-61
2022/11/29 02:26:58;;;;;;;;;;;;;;;24.83;45.32;93905.72;4858004;29;10210;-61
2022/11/29 02:29:42;;;;;;;;;;;;;;;24.83;45.58;93909.22;4858346;29;9389;-61
2022/11/29 02:32:56;;;;;;;;;;;;;;;24.84;44.61;93904.47;4857789;29;7406;-61
2022/11/29 02:35:58;;;;;;;;;;;;;;;24.84;44.99;93907.22;4903679;29;7166;-61
2022/11/29 02:39:14;;;;;;;;;;;;;;;24.83;44.95;93903.72;4898175;29;7023;-61
2022/11/29 02:42:05;;;;;;;;;;;;;;;24.83;44.92;93902.97;4885177;29;8709;-61
2022/11/29 02:44:48;;;;;;;;;;;;;;;24.83;45.50;93905.72;4980616;28;7040;-61
2022/11/29 02:54:27;;;;;;;;;;;;;;;24.82;45.37;93891.22;4951245;28;7137;-61
2022/11/29 02:57:22;;;;;;;;;;;;;;;24.83;45.05;93900.22;4952255;28;9764;-61
2022/11/29 03:00:44;;;;;;;;;;;;;;;24.83;45.73;93900.22;4952815;28;7428;-61
2022/11/29 03:03:39;;;;;;;;;;;;;;;24.84;44.90;93902.44;4919450;29;7036;-61
2022/11/29 03:06:33;;;;;;;;;;;;;;;24.83;44.90;93894.72;4923829;29;7240;-61
2022/11/29 03:09:41;;;;;;;;;;;;;;;24.82;45.45;93893.97;4919869;29;9234;-61
2022/11/29 03:12:36;;;;;;;;;;;;;;;24.83;44.97;93894.72;4901577;29;7056;-61
2022/11/29 03:15:38;;;;;;;;;;;;;;;24.82;44.97;93901.47;4912826;29;8503;-61
2022/11/29 03:18:08;;;;;;;;;;;;;;;24.83;45.46;93911.97;4915853;29;7117;-62
2022/11/29 03:20:46;;;;;;;;;;;;;;;24.84;45.39;93907.22;4912555;29;9339;-62
2022/11/29 03:23:12;;;;;;;;;;;;;;;24.84;45.11;93901.72;4925897;29;7437;-61
2022/11/29 03:26:03;;;;;;;;;;;;;;;24.85;45.52;93911.44;4923902;29;9014;-62
2022/11/29 03:28:41;;;;;;;;;;;;;;;24.85;45.02;93908.69;4901467;29;7008;-62
2022/11/29 03:31:28;;;;;;;;;;;;;;;24.86;44.96;93919.16;4925754;29;7055;-61
2022/11/29 03:37:28;;;;;;;;;;;;;;;24.84;45.35;93915.47;4988660;28;7459;-62
2022/11/29 03:40:17;;;;;;;;;;;;;;;24.86;45.05;93912.94;4986647;28;9807;-62
2022/11/29 03:43:05;;;;;;;;;;;;;;;24.85;44.61;93914.19;4994491;28;9379;-62
2022/11/29 03:45:56;;;;;;;;;;;;;;;24.85;44.75;93903.19;4992455;28;7450;-61
2022/11/29 03:48:34;;;;;;;;;;;;;;;24.86;45.37;93916.41;4995263;28;9044;-62
2022/11/29 03:51:27;;;;;;;;;;;;;;;24.85;45.37;93914.19;4986269;28;7215;-62
2022/11/29 03:54:07;;;;;;;;;;;;;;;24.86;44.97;93918.44;4987569;28;7858;-62
2022/11/29 03:56:53;;;;;;;;;;;;;;;24.84;45.13;93918.94;4979467;28;9497;-62
2022/11/29 03:59:39;;;;;;;;;;;;;;;24.83;45.65;93916.72;4970162;28;7040;-61
2022/11/29 04:02:28;;;;;;;;;;;;;;;24.83;45.05;93922.22;4980701;28;7032;-61
2022/11/29 04:05:33;;;;;;;;;;;;;;;24.82;45.23;93918.72;4987665;28;7300;-61
2022/11/29 04:11:53;;;;;;;;;;;;;;;24.84;45.49;93918.22;4994853;28;7270;-61
2022/11/29 04:15:04;;;;;;;;;;;;;;;24.82;44.92;93924.22;4985059;28;9342;-61
2022/11/29 04:18:07;;;;;;;;;;;;;;;24.83;44.68;93925.72;4990312;28;7109;-61
2022/11/29 04:21:29;;;;;;;;;;;;;;;24.83;45.66;93920.22;4988232;28;6856;-61
2022/11/29 04:23:58;;;;;;;;;;;;;;;24.82;45.16;93915.97;4985619;28;8694;-61
2022/11/29 04:26:58;;;;;;;;;;;;;;;24.82;45.39;93920.72;4992964;28;7745;-60
2022/11/29 04:29:45;;;;;;;;;;;;;;;24.82;45.57;93917.97;4994726;28;7003;-60
2022/11/29 04:32:49;;;;;;;;;;;;;;;24.82;45.11;93926.97;4994535;28;7270;-60
2022/11/29 04:35:47;;;;;;;;;;;;;;;24.82;45.56;93924.22;4983632;28;7124;-60
2022/11/29 04:38:30;;;;;;;;;;;;;;;24.81;45.27;93925.50;4985762;28;7501;-60
2022/11/29 04:41:20;;;;;;;;;;;;;;;24.82;45.32;93928.97;4976881;28;7115;-60
2022/11/29 04:44:06;;;;;;;;;;;;;;;24.82;44.68;93926.97;4996428;28;7346;-60
2022/11/29 04:47:13;;;;;;;;;;;;;;;24.82;44.88;93935.22;4977635;28;7227;-60
2022/11/29 04:49:52;;;;;;;;;;;;;;;24.82;45.37;93931.72;4977735;28;8479;-60
2022/11/29 04:52:45;;;;;;;;;;;;;;;24.84;44.59;93934.72;4975851;28;7261;-60
2022/11/29 04:55:48;;;;;;;;;;;;;;;24.82;44.97;93935.22;4988496;28;9316;-60
2022/11/29 04:58:31;;;;;;;;;;;;;;;24.83;45.63;93935.97;4992792;28;9516;-61
2022/11/29 05:01:46;;;;;;;;;;;;;;;24.83;44.62;93933.22;4990672;28;7615;-60
2022/11/29 05:04:52;;;;;;;;;;;;;;;24.83;44.80;93935.97;4930481;28;7405;-60
2022/11/29 05:07:44;;;;;;;;;;;;;;;24.83;44.82;93939.47;4934193;28;7464;-60
2022/11/29 05:10:50;;;;;;;;;;;;;;;24.83;45.43;93939.47;4919788;28;7227;-61
2022/11/29 05:14:04;;;;;;;;;;;;;;;24.84;44.76;93945.72;4937798;28;7207;-61
2022/11/29 05:16:48;;;;;;;;;;;;;;;24.84;45.39;93949.19;4874720;29;7209;-60
2022/11/29 05:20:03;;;;;;;;;;;;;;;24.86;44.77;93948.69;4876829;29;7265;-61
2022/11/29 05:23:13;;;;;;;;;;;;;;;24.84;45.01;93954.69;4805047;29;7228;-61
2022/11/29 05:25:58;;;;;;;;;;;;;;;24.84;45.47;93957.44;4784100;29;7330;-60
2022/11/29 05:28:53;;;;;;;;;;;;;;;24.84;45.33;93956.72;4820696;29;7805;-60
2022/11/29 05:31:55;;;;;;;;;;;;;;;24.83;45.17;93958.72;4794016;29;9471;-60
2022/11/29 05:34:28;;;;;;;;;;;;;;;24.86;45.38;93962.44;4789406;29;8862;-60
2022/11/29 05:37:20;;;;;;;;;;;;;;;24.85;45.16;93974.69;4796273;29;10199;-60
2022/11/29 05:40:36;;;;;;;;;;;;;;;24.85;45.16;93955.44;4801046;29;7268;-60
2022/11/29 05:43:28;;;;;;;;;;;;;;;24.84;45.60;93962.94;4854801;29;7279;-60
2022/11/29 05:46:14;;;;;;;;;;;;;;;24.84;45.45;93968.44;4840422;29;7391;-60
2022/11/29 05:49:31;;;;;;;;;;;;;;;24.83;48.99;93961.47;4847288;29;9679;-60
2022/11/29 05:52:35;;;;;;;;;;;;;;;24.92;47.91;93972.13;4836591;29;7266;-61
2022/11/29 05:55:28;;;;;;;;;;;;;;;24.92;46.35;93963.13;4903833;29;7338;-61
2022/11/29 05:58:39;;;;;;;;;;;;;;;24.93;47.13;93965.34;4859505;29;7223;-60
2022/11/29 06:01:31;;;;;;;;;;;;;;;24.94;46.34;93972.38;4908121;29;7097;-60
2022/11/29 06:04:51;;;;;;;;;;;;;;;24.94;45.48;93968.88;4910596;29;7359;-60
2022/11/29 06:07:33;;;;;;;;;;;;;;;24.96;46.68;93967.09;4877867;29;7127;-60
2022/11/29 06:10:17;;;;;;;;;;;;;;;25.05;46.63;93974.25;4889803;29;10330;-60
2022/11/29 06:12:59;;;;;;;;;;;;;;;25.10;46.26;93970.69;4888013;29;7051;-60
2022/11/29 06:15:49;;;;;;;;;;;;;;;25.09;45.99;93972.69;4895419;29;7250;-61
2022/11/29 06:18:59;;;;;;;;;;;;;;;25.08;44.43;93979.44;4896664;29;9327;-61
2022/11/29 06:21:58;;;;;;;;;;;;;;;25.05;44.60;93977.75;4890730;29;7255;-60
2022/11/29 06:24:34;;;;;;;;;;;;;;;25.03;45.37;93980.28;4888795;29;9077;-60
2022/11/29 06:27:05;;;;;;;;;;;;;;;25.00;45.58;93975.03;4898735;29;8825;-60
2022/11/29 06:29:50;;;;;;;;;;;;;;;24.98;45.06;93985.81;4894284;29;7816;-60
2022/11/29 06:32:54;;;;;;;;;;;;;;;24.96;45.59;93982.84;4878808;29;7991;-60
2022/11/29 06:35:57;;;;;;;;;;;;;;;24.94;44.74;93988.13;4909503;29;7249;-60
2022/11/29 06:38:28;;;;;;;;;;;;;;;24.97;46.45;93989.84;4914180;29;7267;-60
2022/11/29 06:41:00;;;;;;;;;;;;;;;24.99;44.97;94001.09;4953090;28;7235;-60
2022/11/29 06:43:56;;;;;;;;;;;;;;;25.06;45.11;93987.47;4994171;28;9200;-60
2022/11/29 06:46:59;;;;;;;;;;;;;;;25.11;44.56;93991.44;4933713;29;7119;-60
2022/11/29 06:49:38;;;;;;;;;;;;;;;25.13;44.28;93994.41;4913526;29;7057;-60
2022/11/29 06:52:14;;;;;;;;;;;;;;;25.11;44.46;94000.44;4919757;29;6990;-60
2022/11/29 06:55:35;;;;;;;;;;;;;;;25.10;44.98;93992.72;4933549;29;8930;-60
2022/11/29 06:58:31;;;;;;;;;;;;;;;25.11;45.05;93996.94;4936004;29;7343;-60
2022/11/29 07:01:27;;;;;;;;;;;;;;;25.06;44.69;93995.72;4862934;29;7270;-60
2022/11/29 07:04:38;;;;;;;;;;;;;;;25.08;45.39;93987.72;4859807;29;9696;-60
2022/11/29 07:07:16;;;;;;;;;;;;;;;25.08;44.71;93998.72;4864748;29;8446;-60
2022/11/29 07:09:48;;;;;;;;;;;;;;;25.04;44.47;94005.75;4867067;29;8691;-60
2022/11/29 07:12:25;;;;;;;;;;;;;;;25.02;45.31;94002.78;4862891;29;7125;-60
2022/11/29 07:14:53;;;;;;;;;;;;;;;25.00;44.84;94005.31;4876837;29;7496;-60
2022/11/29 07:17:58;;;;;;;;;;;;;;;24.98;44.55;94011.34;4859587;29;9055;-61
2022/11/29 07:20:50;;;;;;;;;;;;;;;24.96;44.67;94019.38;4861077;29;9042;-60
2022/11/29 07:23:53;;;;;;;;;;;;;;;24.96;44.73;94015.84;4892968;29;7356;-60
2022/11/29 07:26:42;;;;;;;;;;;;;;;24.93;45.10;94017.63;4898644;29;10182;-60
2022/11/29 07:29:30;;;;;;;;;;;;;;;24.95;45.35;94017.09;4889214;29;9162;-60
2022/11/29 07:32:14;;;;;;;;;;;;;;;24.96;46.14;94015.84;4896895;29;7341;-60
2022/11/29 07:34:55;;;;;;;;;;;;;;;24.94;45.02;94015.63;4895351;29;7283;-60
2022/11/29 07:37:43;;;;;;;;;;;;;;;24.93;44.80;94025.13;4918542;28;9326;-60
2022/11/29 07:40:24;;;;;;;;;;;;;;;24.94;45.50;94023.88;4985111;28;7839;-60
2022/11/29 07:43:29;;;;;;;;;;;;;;;24.93;45.90;94014.88;4986539;28;7118;-60
2022/11/29 07:45:58;;;;;;;;;;;;;;;24.95;45.20;94015.09;4991600;28;7031;-60
2022/11/29 07:48:26;;;;;;;;;;;;;;;24.95;45.50;94022.59;4988878;28;9472;-60
2022/11/29 07:50:54;;;;;;;;;;;;;;;24.96;45.86;94026.88;4989261;28;7359;-61
2022/11/29 07:53:22;;;;;;;;;;;;;;;24.95;45.79;94028.13;5002351;28;7325;-60
2022/11/29 07:55:56;;;;;;;;;;;;;;;24.95;45.49;94028.13;4987043;28;9126;-60
2022/11/29 07:58:22;;;;;;;;;;;;;;;24.94;45.16;94030.13;4984865;28;9076;-60
2022/11/29 08:00:48;;;;;;;;;;;;;;;24.93;45.27;94025.13;4979691;28;7242;-60
2022/11/29 08:03:43;;;;;;;;;;;;;;;24.96;44.91;94035.13;4988760;28;7198;-60
2022/11/29 08:06:10;;;;;;;;;;;;;;;24.95;45.72;94044.63;4987436;28;7280;-60
2022/11/29 08:08:45;;;;;;;;;;;;;;;24.95;45.25;94037.13;4991889;28;7381;-60
2022/11/29 08:11:40;;;;;;;;;;;;;;;24.94;45.12;94043.13;5002038;28;7053;-60
2022/11/29 08:14:06;;;;;;;;;;;;;;;24.93;45.12;94036.13;4970426;28;7667;-60
2022/11/29 08:16:33;;;;;;;;;;;;;;;24.93;45.25;94042.38;4951115;28;7811;-60
2022/11/29 08:19:18;;;;;;;;;;;;;;;24.94;45.63;94037.63;4969539;28;7250;-60
2022/11/29 08:21:56;;;;;;;;;;;;;;;24.92;45.71;94040.16;4967936;28;7295;-60
2022/11/29 08:24:26;;;;;;;;;;;;;;;24.91;45.39;94038.66;4967785;28;8697;-60
2022/11/29 08:26:53;;;;;;;;;;;;;;;24.93;45.57;94052.63;4972118;28;8971;-60
2022/11/29 08:29:19;;;;;;;;;;;;;;;24.95;44.69;94047.38;4972836;28;8293;-60
2022/11/29 08:32:05;;;;;;;;;;;;;;;24.96;45.26;94051.63;4969860;28;7431;-60
2022/11/29 08:34:42;;;;;;;;;;;;;;;24.95;44.78;94058.38;4944713;28;7370;-60
2022/11/29 08:37:22;;;;;;;;;;;;;;;24.93;44.85;94047.88;4955519;28;7555;-60
2022/11/29 08:39:59;;;;;;;;;;;;;;;24.92;44.87;94051.91;4947515;28;7371;-60
2022/11/29 08:42:46;;;;;;;;;;;;;;;24.91;44.61;94055.16;4969672;28;7269;-60
2022/11/29 08:45:21;;;;;;;;;;;;;;;24.89;44.85;94050.19;4950857;28;7586;-60
2022/11/29 08:48:00;;;;;;;;;;;;;;;24.91;44.71;94055.91;4955898;28;8567;-60
2022/11/29 08:50:26;;;;;;;;;;;;;;;24.89;45.16;94063.19;4982299;28;7284;-60
2022/11/29 08:56:19;;;;;;;;;;;;;;;24.90;45.58;94061.94;4988121;28;7160;-60
2022/11/29 08:58:56;;;;;;;;;;;;;;;24.91;45.08;94061.41;4945082;28;7124;-60
2022/11/29 09:01:23;;;;;;;;;;;;;;;24.94;44.69;94065.16;4944391;28;9547;-60
2022/11/29 09:04:09;;;;;;;;;;;;;;;24.95;44.93;94061.13;4939253;28;9277;-60
2022/11/29 09:06:44;;;;;;;;;;;;;;;24.94;44.65;94059.66;4946212;28;7230;-60
2022/11/29 09:09:10;;;;;;;;;;;;;;;24.93;45.52;94061.66;4933895;28;7128;-60
2022/11/29 09:11:38;;;;;;;;;;;;;;;24.92;45.34;94059.41;4933433;28;7020;-60
2022/11/29 09:14:15;;;;;;;;;;;;;;;24.92;45.65;94064.91;4946055;28;7105;-60
2022/11/29 09:16:49;;;;;;;;;;;;;;;24.91;45.52;94069.66;4941202;28;9398;-60
2022/11/29 09:19:16;;;;;;;;;;;;;;;24.90;45.30;94065.44;4949363;28;7452;-60
2022/11/29 09:21:42;;;;;;;;;;;;;;;24.91;45.61;94068.91;4931772;28;7272;-60
2022/11/29 09:24:10;;;;;;;;;;;;;;;24.91;44.78;94066.16;4934207;28;8288;-60
2022/11/29 09:26:39;;;;;;;;;;;;;;;24.89;44.82;94068.69;4948273;28;8372;-61
2022/11/29 09:29:08;;;;;;;;;;;;;;;24.87;45.14;94074.72;4946956;28;7258;-60
2022/11/29 09:31:46;;;;;;;;;;;;;;;24.90;45.06;94078.44;4939094;28;9048;-60
2022/11/29 09:34:21;;;;;;;;;;;;;;;24.87;45.05;94071.22;4953054;28;7302;-60
2022/11/29 09:36:47;;;;;;;;;;;;;;;24.88;45.20;94078.22;4989428;28;9630;-60
2022/11/29 09:39:13;;;;;;;;;;;;;;;24.90;45.36;94081.19;4990158;28;7504;-60
2022/11/29 09:41:52;;;;;;;;;;;;;;;24.93;44.54;94086.41;5002904;28;7031;-60
2022/11/29 09:44:47;;;;;;;;;;;;;;;24.93;44.61;94086.41;4980581;28;7459;-61
2022/11/29 09:47:50;;;;;;;;;;;;;;;24.93;44.99;94088.41;4963628;28;7018;-60
2022/11/29 09:50:56;;;;;;;;;;;;;;;24.91;44.72;94082.66;4969871;28;7224;-60
2022/11/29 09:54:19;;;;;;;;;;;;;;;24.89;45.55;94088.69;4939938;28;7118;-60
2022/11/29 09:56:54;;;;;;;;;;;;;;;24.90;44.72;94081.19;4885398;29;7289;-60
2022/11/29 09:59:26;;;;;;;;;;;;;;;24.90;45.14;94081.19;4873136;29;7351;-60
2022/11/29 10:02:30;;;;;;;;;;;;;;;24.89;45.23;94080.44;4883086;29;7047;-60
2022/11/29 10:05:15;;;;;;;;;;;;;;;24.87;45.23;94087.72;4891144;29;7158;-61
2022/11/29 10:08:11;;;;;;;;;;;;;;;24.91;45.34;94079.94;4894287;29;10181;-60
2022/11/29 10:11:22;;;;;;;;;;;;;;;24.90;45.56;94084.69;4894221;29;7508;-61
2022/11/29 10:14:16;;;;;;;;;;;;;;;24.90;45.28;94087.44;4851778;29;7577;-60
2022/11/29 10:16:53;;;;;;;;;;;;;;;24.91;44.84;94077.94;4865798;29;7051;-60
2022/11/29 10:19:32;;;;;;;;;;;;;;;24.91;44.87;94082.66;4852657;29;7250;-60
2022/11/29 10:22:26;;;;;;;;;;;;;;;24.89;45.51;94076.94;4861019;29;7214;-60
2022/11/29 10:25:01;;;;;;;;;;;;;;;24.90;45.13;94078.44;4850759;29;8675;-60
2022/11/29 10:27:28;;;;;;;;;;;;;;;24.90;45.28;94078.44;4891511;29;7088;-60
2022/11/29 10:30:01;;;;;;;;;;;;;;;24.88;45.61;94078.94;4900865;29;7203;-60
2022/11/29 10:32:37;;;;;;;;;;;;;;;24.89;45.52;94074.19;4906594;29;11685;-60
2022/11/29 10:35:21;;;;;;;;;;;;;;;24.92;44.81;94084.19;4912492;29;6864;-60
2022/11/29 10:37:54;;;;;;;;;;;;;;;24.92;44.85;94081.44;4888915;29;8779;-60
2022/11/29 10:40:40;;;;;;;;;;;;;;;24.91;44.96;94079.94;4895339;29;7348;-60
2022/11/29 10:43:07;;;;;;;;;;;;;;;24.91;44.96;94074.41;4892571;29;10494;-60
2022/11/29 10:45:54;;;;;;;;;;;;;;;24.90;45.13;94075.69;4975823;28;7234;-60
2022/11/29 10:48:32;;;;;;;;;;;;;;;24.91;44.90;94079.94;4986719;28;7300;-60
2022/11/29 10:50:59;;;;;;;;;;;;;;;24.91;45.07;94077.16;4995525;28;8830;-60
2022/11/29 10:53:36;;;;;;;;;;;;;;;24.91;45.35;94077.16;4982491;28;7189;-61
2022/11/29 10:56:12;;;;;;;;;;;;;;;24.95;45.20;94074.88;4982821;28;7036;-60
2022/11/29 10:58:55;;;;;;;;;;;;;;;24.95;45.04;94072.13;4982990;28;7152;-60
2022/11/29 11:01:27;;;;;;;;;;;;;;;24.95;44.61;94077.63;4984115;28;7043;-60
2022/11/29 11:03:59;;;;;;;;;;;;;;;24.95;44.46;94075.63;4991834;28;9320;-60
2022/11/29 11:06:54;;;;;;;;;;;;;;;24.94;44.98;94081.66;4989532;28;7148;-60
2022/11/29 11:09:51;;;;;;;;;;;;;;;24.96;44.69;94074.38;4980626;28;7052;-61
2022/11/29 11:12:24;;;;;;;;;;;;;;;24.92;44.56;94073.94;4976575;28;7534;-60
2022/11/29 11:14:50;;;;;;;;;;;;;;;24.91;45.34;94077.94;4981070;28;7235;-60
2022/11/29 11:17:25;;;;;;;;;;;;;;;24.92;45.24;94073.19;4979482;28;7020;-60
2022/11/29 11:19:59;;;;;;;;;;;;;;;24.92;45.27;94075.94;4976064;28;7271;-60
2022/11/29 11:22:28;;;;;;;;;;;;;;;24.92;44.96;94073.94;4985220;28;7430;-60
2022/11/29 11:24:59;;;;;;;;;;;;;;;24.91;44.70;94074.41;4980253;28;7280;-60
2022/11/29 11:27:34;;;;;;;;;;;;;;;24.91;44.84;94069.66;4990974;28;7230;-60
2022/11/29 11:30:05;;;;;;;;;;;;;;;24.91;45.17;94074.41;4988265;28;8477;-60
2022/11/29 11:32:38;;;;;;;;;;;;;;;24.93;44.62;94077.41;5004856;28;7810;-60
2022/11/29 11:35:22;;;;;;;;;;;;;;;24.92;44.39;94067.66;4987068;28;9331;-60
2022/11/29 11:37:57;;;;;;;;;;;;;;;24.92;43.89;94079.44;4983884;28;7025;-60
2022/11/29 11:40:41;;;;;;;;;;;;;;;24.95;44.51;94083.88;4980755;28;8406;-61
2022/11/29 11:43:20;;;;;;;;;;;;;;;24.99;44.51;94078.13;5004243;28;7329;-61
2022/11/29 11:45:55;;;;;;;;;;;;;;;25.03;44.39;94078.59;4986694;28;8919;-60
2022/11/29 11:48:36;;;;;;;;;;;;;;;25.01;44.17;94083.84;4986858;28;7811;-60
2022/11/29 11:51:02;;;;;;;;;;;;;;;24.98;44.02;94082.13;4997974;28;7278;-60
2022/11/29 11:53:37;;;;;;;;;;;;;;;24.97;44.39;94081.38;4988604;28;9327;-60
2022/11/29 11:56:10;;;;;;;;;;;;;;;24.97;43.99;94075.13;4990954;28;7240;-60
2022/11/29 11:59:21;;;;;;;;;;;;;;;24.96;44.36;94071.63;4982273;28;7033;-60
2022/11/29 12:02:43;;;;;;;;;;;;;;;24.96;44.15;94076.38;4930386;29;6866;-60
2022/11/29 12:05:17;;;;;;;;;;;;;;;24.97;44.26;94091.66;4911556;29;7030;-60
2022/11/29 12:07:56;;;;;;;;;;;;;;;24.97;44.78;94083.41;4925507;29;9285;-60
2022/11/29 12:10:30;;;;;;;;;;;;;;;24.96;44.19;94090.16;4916212;29;7272;-60
2022/11/29 12:13:01;;;;;;;;;;;;;;;24.94;45.08;94092.66;4906312;29;9182;-60
2022/11/29 12:15:49;;;;;;;;;;;;;;;24.96;44.27;94090.16;4929882;29;7671;-60
2022/11/29 12:18:46;;;;;;;;;;;;;;;24.96;44.93;94087.38;4924621;29;7038;-60
2022/11/29 12:21:39;;;;;;;;;;;;;;;24.96;44.39;94090.91;4914826;29;8274;-60
2022/11/29 12:24:35;;;;;;;;;;;;;;;24.99;44.39;94089.13;4910369;29;7050;-60
2022/11/29 12:27:04;;;;;;;;;;;;;;;24.99;44.30;94084.34;4930466;29;7311;-60
2022/11/29 12:29:33;;;;;;;;;;;;;;;25.01;44.25;94087.34;4920799;29;7200;-60
2022/11/29 12:32:24;;;;;;;;;;;;;;;25.01;44.58;94092.84;4905615;29;7061;-60
2022/11/29 12:35:15;;;;;;;;;;;;;;;25.02;45.06;94093.59;4926801;29;9796;-60
2022/11/29 12:37:47;;;;;;;;;;;;;;;25.02;44.72;94094.34;4962260;28;7258;-61
2022/11/29 12:40:37;;;;;;;;;;;;;;;25.02;44.81;94090.84;4983596;28;7024;-60
2022/11/29 12:43:47;;;;;;;;;;;;;;;25.02;45.14;94093.59;4996405;28;7246;-60
2022/11/29 12:46:53;;;;;;;;;;;;;;;25.01;45.18;94092.09;4976030;28;7046;-60
2022/11/29 12:50:00;;;;;;;;;;;;;;;25.02;44.97;94096.34;4957850;28;7363;-60
2022/11/29 12:53:05;;;;;;;;;;;;;;;25.05;44.01;94098.81;4934197;29;9272;-60
2022/11/29 12:55:50;;;;;;;;;;;;;;;25.03;44.42;94095.84;4910730;29;7046;-60
2022/11/29 12:58:23;;;;;;;;;;;;;;;25.05;44.31;94092.56;4916990;29;7471;-60
2022/11/29 13:01:03;;;;;;;;;;;;;;;25.04;44.20;94093.81;4911642;29;7283;-60
2022/11/29 13:04:07;;;;;;;;;;;;;;;25.03;44.24;94095.84;4932485;28;7517;-60
2022/11/29 13:06:59;;;;;;;;;;;;;;;25.02;44.19;94099.84;4919949;29;7359;-60
2022/11/29 13:10:16;;;;;;;;;;;;;;;25.01;44.67;94100.38;4902787;29;8411;-60
2022/11/29 13:12:48;;;;;;;;;;;;;;;25.02;45.11;94104.59;4875937;29;7268;-60
2022/11/29 13:15:21;;;;;;;;;;;;;;;25.02;44.96;94107.34;4891466;29;7002;-60
2022/11/29 13:18:21;;;;;;;;;;;;;;;25.04;44.28;94104.81;4878130;29;7009;-60
2022/11/29 13:20:56;;;;;;;;;;;;;;;25.04;44.92;94108.31;4893450;29;9099;-60
2022/11/29 13:23:56;;;;;;;;;;;;;;;25.06;43.72;94103.06;4879491;29;9811;-60
2022/11/29 13:26:25;;;;;;;;;;;;;;;25.03;43.38;94100.59;4900164;29;7186;-60
2022/11/29 13:28:52;;;;;;;;;;;;;;;25.03;44.65;94106.09;4940825;28;9438;-60
2022/11/29 13:31:24;;;;;;;;;;;;;;;25.02;43.61;94107.34;4926761;28;7261;-61
2022/11/29 13:34:10;;;;;;;;;;;;;;;25.03;43.66;94104.09;4923716;28;7137;-60
2022/11/29 13:37:06;;;;;;;;;;;;;;;25.03;44.44;94100.59;4932879;28;7570;-60
2022/11/29 13:40:18;;;;;;;;;;;;;;;25.03;44.21;94106.84;4951764;28;7445;-60
2022/11/29 13:45:57;;;;;;;;;;;;;;;25.02;44.57;94099.09;4917622;29;8125;-60
2022/11/29 13:48:33;;;;;;;;;;;;;;;25.03;44.10;94103.34;4921269;29;7317;-60
2022/11/29 13:51:25;;;;;;;;;;;;;;;25.02;43.87;94099.09;4932135;29;7118;-60
2022/11/29 13:53:57;;;;;;;;;;;;;;;25.02;44.22;94110.09;4929920;29;7036;-60
2022/11/29 13:56:47;;;;;;;;;;;;;;;25.02;43.74;94104.59;4933207;29;7357;-60
2022/11/29 13:59:21;;;;;;;;;;;;;;;25.00;44.02;94112.63;4927899;29;7672;-60
2022/11/29 14:01:58;;;;;;;;;;;;;;;24.99;44.19;94111.88;4933027;29;7216;-60
2022/11/29 14:04:50;;;;;;;;;;;;;;;25.00;44.74;94115.38;4932849;29;7118;-61
2022/11/29 14:07:32;;;;;;;;;;;;;;;25.00;44.59;94107.09;4932105;29;9487;-61
2022/11/29 14:10:19;;;;;;;;;;;;;;;25.01;44.78;94114.13;4932492;29;7294;-61
2022/11/29 14:12:55;;;;;;;;;;;;;;;25.02;44.06;94115.59;4932594;29;7252;-61
2022/11/29 14:15:43;;;;;;;;;;;;;;;25.02;44.60;94118.34;4932555;29;7126;-61
2022/11/29 14:18:43;;;;;;;;;;;;;;;25.02;45.03;94123.84;4894680;28;7626;-61
2022/11/29 14:21:18;;;;;;;;;;;;;;;25.01;44.80;94119.63;4988022;28;8252;-60
2022/11/29 14:24:30;;;;;;;;;;;;;;;25.00;44.66;94118.13;4981231;28;7147;-60
2022/11/29 14:27:18;;;;;;;;;;;;;;;24.99;44.37;94116.63;4984747;28;9422;-60
2022/11/29 14:29:52;;;;;;;;;;;;;;;25.00;44.16;94118.88;4987405;28;8994;-61
2022/11/29 14:32:29;;;;;;;;;;;;;;;25.01;44.81;94122.38;4982186;28;7119;-61
2022/11/29 14:35:00;;;;;;;;;;;;;;;25.01;45.03;94122.38;4996966;28;7611;-60
2022/11/29 14:38:04;;;;;;;;;;;;;;;25.00;44.75;94118.88;4990881;28;9308;-61
2022/11/29 14:41:02;;;;;;;;;;;;;;;25.01;44.58;94122.38;4921882;29;7054;-60
2022/11/29 14:43:36;;;;;;;;;;;;;;;25.01;44.56;94123.09;4942795;29;7066;-60
2022/11/29 14:46:14;;;;;;;;;;;;;;;25.03;45.14;94119.84;4946691;28;7234;-61
2022/11/29 14:49:01;;;;;;;;;;;;;;;25.02;44.96;94118.34;4920171;29;7303;-61
2022/11/29 14:51:37;;;;;;;;;;;;;;;25.02;44.57;94123.84;4941722;28;7042;-60